FOON

Details ICAO FOON (MVB)
Name MVENGUE
Region Gabon
Timezone Africa/Libreville (UTC+1.0)
Plans Departing 38
Arriving 23
Stats Elevation 1,450 ft / 442 m (AMSL)
Location -1.656155° 13.438038°
Runways 1
Magnetic Variation 1.184° W
Sunrise 2018-05-20 05:03:03 UTC / 2018-05-20 06:03:03 Local
Sunset 2018-05-20 17:05:20 UTC / 2018-05-20 18:05:20 Local
Advertisement - Login to hide

Runways

ID Width Length Bearing (true) Bearing (mag) Surface Threshold Offset Overrun Length
15 148 ft / 45 m 10,130 ft / 3,088 m 143.83° 145.01° Asphalt 0 ft / 0 m 197 ft / 60 m
33 148 ft / 45 m 10,130 ft / 3,088 m 323.83° 325.01° Asphalt 0 ft / 0 m 197 ft / 60 m

Approach Navaids

Runway Type Ident Frequency Range Bearing (true) Bearing (mag) Slope Elevation
15 Localiser FRA 110.10 MHz 18 nm / 33 km 143.91° 145.09° - 1,424 ft / 434 m (AMSL)
15 Glidescope FRA 110.10 MHz 10 nm / 19 km 143.83° 145.01° 3.00° 1,506 ft / 459 m (AMSL)

Map

Weather


0- 5 10 15 20 25 30 35+ Temperature / ° C

Clouds and Precipitation
Forecast for 2018-05-20 12:00 UTC. Updated an hour ago

Ground ~20,000 ft ~40,000 ft Winds

METAR

FOON 201200Z VRB05KT 9999 BKN013 FEW020CB 29/23 Q1013

TAF

Not found

Frequencies

Tower 118.20 MHz MVENGUE TWR
Warning: Do not use this data for real-world aviation or navigation. No guarantee of current accuracy is given.